createdAt,value
2019-02-19T00:01:31.346Z,30.57
2019-02-19T00:04:02.544Z,29.37
2019-02-19T00:06:34.159Z,30.05
2019-02-19T00:09:07.161Z,29.00
2019-02-19T00:11:38.504Z,28.90
2019-02-19T00:14:10.024Z,30.20
2019-02-19T00:16:41.464Z,30.97
2019-02-19T00:19:12.744Z,30.00
2019-02-19T00:21:44.579Z,30.35
2019-02-19T00:24:16.182Z,28.62
2019-02-19T00:26:47.847Z,27.77
2019-02-19T00:29:19.454Z,27.13
2019-02-19T00:31:51.814Z,27.37
2019-02-19T00:34:23.158Z,28.07
2019-02-19T00:36:54.445Z,27.00
2019-02-19T00:39:26.086Z,26.82
2019-02-19T00:41:57.732Z,27.45
2019-02-19T00:44:29.325Z,26.80
2019-02-19T00:47:01.014Z,26.73
2019-02-19T00:49:32.612Z,26.40
2019-02-19T00:52:04.147Z,26.12
2019-02-19T00:54:35.624Z,26.80
2019-02-19T00:57:07.259Z,27.05
2019-02-19T00:59:38.954Z,27.10
2019-02-19T01:02:10.300Z,25.82
2019-02-19T01:04:41.815Z,25.25
2019-02-19T01:07:13.494Z,25.37
2019-02-19T01:09:44.940Z,23.95
2019-02-19T01:12:16.189Z,25.17
2019-02-19T01:14:47.868Z,24.70
2019-02-19T01:17:19.316Z,25.00
2019-02-19T01:19:51.050Z,25.00
2019-02-19T01:22:22.462Z,24.75
2019-02-19T01:24:54.105Z,23.52
2019-02-19T01:27:25.848Z,25.40
2019-02-19T01:29:57.307Z,24.52
2019-02-19T01:32:28.998Z,23.67
2019-02-19T01:35:00.538Z,23.40
2019-02-19T01:37:32.018Z,24.10
2019-02-19T01:40:03.687Z,23.38
2019-02-19T01:42:36.240Z,22.82
2019-02-19T01:45:09.024Z,23.30
2019-02-19T01:47:40.583Z,23.12
2019-02-19T01:50:12.394Z,22.75
2019-02-19T01:52:43.898Z,22.40
2019-02-19T01:55:15.490Z,22.37
2019-02-19T01:57:47.067Z,22.22
2019-02-19T02:00:18.628Z,23.65
2019-02-19T02:02:50.212Z,23.80
2019-02-19T02:05:21.788Z,23.50
2019-02-19T02:07:53.281Z,24.07
2019-02-19T02:10:24.888Z,22.77
2019-02-19T02:12:56.426Z,23.52
2019-02-19T02:15:27.893Z,23.00
2019-02-19T02:17:59.356Z,23.32
2019-02-19T02:20:31.933Z,24.05
2019-02-19T02:23:03.571Z,26.60
2019-02-19T02:25:35.130Z,27.98
2019-02-19T02:28:07.069Z,28.45
2019-02-19T02:30:38.638Z,31.68
2019-02-19T02:33:10.225Z,55.50
2019-02-19T02:35:41.597Z,51.02
2019-02-19T02:38:12.902Z,48.38
2019-02-19T02:40:44.144Z,47.88
2019-02-19T02:43:15.557Z,47.50
2019-02-19T02:45:53.510Z,39.27
2019-02-19T02:48:20.582Z,37.93
2019-02-19T02:50:52.148Z,44.13
2019-02-19T02:53:23.738Z,40.08
2019-02-19T02:55:55.450Z,34.20
2019-02-19T02:58:27.078Z,39.10
2019-02-19T03:00:58.639Z,33.18
2019-02-19T03:03:30.045Z,32.65
2019-02-19T03:06:14.415Z,34.45
2019-02-19T03:08:45.847Z,29.30
2019-02-19T03:11:17.483Z,35.92
2019-02-19T03:13:49.054Z,35.30
2019-02-19T03:16:20.802Z,34.38
2019-02-19T03:18:52.224Z,36.85
2019-02-19T03:21:23.760Z,34.00
2019-02-19T03:23:55.365Z,37.73
2019-02-19T03:26:26.859Z,38.48
2019-02-19T03:28:58.349Z,39.38
2019-02-19T03:31:29.577Z,35.80
2019-02-19T03:34:00.801Z,33.58
2019-02-19T03:36:32.057Z,33.45
2019-02-19T03:39:04.670Z,31.27
2019-02-19T03:41:37.005Z,32.88
2019-02-19T03:44:08.523Z,31.45
2019-02-19T03:46:40.277Z,31.82
2019-02-19T03:49:11.814Z,31.97
2019-02-19T03:51:43.458Z,31.20
2019-02-19T03:54:14.900Z,30.30
2019-02-19T03:56:46.568Z,31.68
2019-02-19T03:59:18.137Z,29.80
2019-02-19T04:01:49.644Z,31.82
2019-02-19T04:04:21.018Z,31.35
2019-02-19T04:06:52.545Z,29.90
2019-02-19T04:09:23.868Z,33.05
2019-02-19T04:11:55.209Z,31.42
2019-02-19T04:14:26.412Z,33.85
2019-02-19T04:16:58.885Z,37.30
2019-02-19T04:19:30.488Z,38.98
2019-02-19T04:22:01.690Z,37.35
2019-02-19T04:24:33.357Z,35.20
2019-02-19T04:27:04.967Z,35.98
2019-02-19T04:29:36.354Z,34.40
2019-02-19T04:32:07.973Z,35.23
2019-02-19T04:34:39.591Z,33.85
2019-02-19T04:37:11.252Z,32.03
2019-02-19T04:39:42.783Z,33.90
2019-02-19T04:42:14.435Z,33.92
2019-02-19T04:44:45.932Z,35.00
2019-02-19T04:47:17.599Z,33.67
2019-02-19T04:49:49.251Z,34.13
2019-02-19T04:52:20.812Z,35.17
2019-02-19T04:54:52.410Z,35.80
2019-02-19T04:57:24.012Z,35.23
2019-02-19T04:59:55.375Z,34.55
2019-02-19T05:02:27.018Z,36.88
2019-02-19T05:04:58.522Z,36.03
2019-02-19T05:07:29.942Z,36.55
2019-02-19T05:10:01.357Z,36.30
2019-02-19T05:12:32.876Z,36.15
2019-02-19T05:15:04.644Z,37.55
2019-02-19T05:17:36.346Z,37.50
2019-02-19T05:20:08.352Z,37.17
2019-02-19T05:22:39.680Z,39.90
2019-02-19T05:25:11.498Z,38.45
2019-02-19T05:27:42.998Z,38.30
2019-02-19T05:30:14.814Z,37.95
2019-02-19T05:32:46.424Z,39.90
2019-02-19T05:35:18.028Z,40.58
2019-02-19T05:37:49.579Z,42.58
2019-02-19T05:40:21.373Z,48.45
2019-02-19T05:42:52.645Z,46.70
2019-02-19T05:45:24.051Z,47.78
2019-02-19T05:47:55.584Z,41.00
2019-02-19T05:50:27.082Z,46.60
2019-02-19T05:52:58.831Z,40.80
2019-02-19T05:55:30.574Z,41.13
2019-02-19T05:58:02.007Z,42.30
2019-02-19T06:00:33.660Z,40.38
2019-02-19T06:03:05.340Z,39.60
2019-02-19T06:05:37.139Z,38.33
2019-02-19T06:08:08.573Z,39.00
2019-02-19T06:10:40.183Z,42.17
2019-02-19T06:13:11.727Z,39.42
2019-02-19T06:15:42.939Z,41.75
2019-02-19T06:18:14.905Z,36.45
2019-02-19T06:20:47.482Z,37.20
2019-02-19T06:23:19.072Z,38.60
2019-02-19T06:25:50.634Z,39.65
2019-02-19T06:28:22.263Z,38.55
2019-02-19T06:30:53.634Z,40.73
2019-02-19T06:33:25.280Z,38.23
2019-02-19T06:35:56.689Z,36.73
2019-02-19T06:38:28.077Z,37.98
2019-02-19T06:40:59.511Z,39.08
2019-02-19T06:43:31.014Z,38.70
2019-02-19T06:46:02.706Z,34.20
2019-02-19T06:48:34.173Z,39.00
2019-02-19T06:51:05.879Z,41.08
2019-02-19T06:53:37.436Z,38.17
2019-02-19T06:56:09.367Z,53.28
2019-02-19T06:58:40.636Z,59.93
2019-02-19T07:01:12.270Z,62.85
2019-02-19T07:04:01.540Z,65.35
2019-02-19T07:06:32.883Z,64.75
2019-02-19T07:09:05.015Z,66.67
2019-02-19T07:11:36.651Z,60.40
2019-02-19T07:14:08.197Z,53.90
2019-02-19T07:16:39.403Z,51.92
2019-02-19T07:19:10.672Z,48.33
2019-02-19T07:21:42.131Z,42.33
2019-02-19T07:24:13.752Z,40.83
2019-02-19T07:26:45.534Z,42.83
2019-02-19T07:29:16.948Z,41.83
2019-02-19T07:31:48.343Z,41.70
2019-02-19T07:34:19.970Z,43.02
2019-02-19T07:36:51.504Z,42.83
2019-02-19T07:39:22.887Z,44.15
2019-02-19T07:41:54.097Z,43.08
2019-02-19T07:44:25.467Z,43.33
2019-02-19T07:46:56.718Z,44.75
2019-02-19T07:49:28.464Z,43.38
2019-02-19T07:52:00.054Z,46.00
2019-02-19T07:54:31.349Z,45.45
2019-02-19T07:57:02.569Z,45.33
2019-02-19T07:59:34.178Z,42.43
2019-02-19T08:02:05.580Z,45.25
2019-02-19T08:04:36.822Z,43.38
2019-02-19T08:07:08.207Z,44.48
2019-02-19T08:09:39.670Z,47.05
2019-02-19T08:12:11.042Z,42.90
2019-02-19T08:14:42.306Z,44.93
2019-02-19T08:17:14.184Z,45.10
2019-02-19T08:19:45.605Z,47.13
2019-02-19T08:22:17.587Z,44.15
2019-02-19T08:24:49.119Z,44.27
2019-02-19T08:27:20.525Z,45.10
2019-02-19T08:29:52.311Z,45.23
2019-02-19T08:32:23.835Z,47.20
2019-02-19T08:34:55.315Z,45.65
2019-02-19T08:37:26.558Z,42.15
2019-02-19T08:39:58.150Z,43.50
2019-02-19T08:42:29.640Z,44.15
2019-02-19T08:45:01.134Z,40.58
2019-02-19T08:47:32.563Z,44.25
2019-02-19T08:50:04.139Z,41.10
2019-02-19T08:52:35.820Z,41.08
2019-02-19T08:55:07.503Z,41.73
2019-02-19T08:57:39.174Z,40.80
2019-02-19T09:00:11.438Z,39.98
2019-02-19T09:02:42.849Z,40.30
2019-02-19T09:05:14.176Z,41.58
2019-02-19T09:07:45.590Z,40.77
2019-02-19T09:10:16.920Z,39.80
2019-02-19T09:12:48.187Z,41.30
2019-02-19T09:15:19.716Z,41.08
2019-02-19T09:17:52.189Z,39.87
2019-02-19T09:20:23.711Z,42.60
2019-02-19T09:22:54.918Z,44.50
2019-02-19T09:25:26.210Z,42.90
2019-02-19T09:27:57.447Z,42.37
2019-02-19T09:30:28.869Z,39.73
2019-02-19T09:33:00.238Z,42.97
2019-02-19T09:35:31.656Z,41.87
2019-02-19T09:38:02.903Z,41.33
2019-02-19T09:40:34.033Z,45.50
2019-02-19T09:43:05.513Z,42.23
2019-02-19T09:45:36.834Z,39.03
2019-02-19T09:48:08.102Z,40.80
2019-02-19T09:50:39.414Z,48.53
2019-02-19T09:53:10.781Z,55.77
2019-02-19T09:55:43.794Z,40.67
2019-02-19T09:58:15.304Z,39.73
2019-02-19T10:00:46.747Z,38.97
2019-02-19T10:03:18.042Z,37.53
2019-02-19T10:05:49.378Z,36.13
2019-02-19T10:08:20.535Z,35.73
2019-02-19T10:10:51.981Z,34.63
2019-02-19T10:13:25.128Z,34.63
2019-02-19T10:15:56.651Z,33.73
2019-02-19T10:18:27.761Z,33.30
2019-02-19T10:20:59.796Z,33.23
2019-02-19T10:23:31.201Z,33.20
2019-02-19T10:26:04.007Z,31.33
2019-02-19T10:28:35.213Z,29.83
2019-02-19T10:31:06.501Z,28.50
2019-02-19T10:33:37.612Z,28.93
2019-02-19T10:36:08.752Z,29.43
2019-02-19T10:38:39.739Z,29.07
2019-02-19T10:41:10.854Z,29.73
2019-02-19T10:43:41.974Z,26.90
2019-02-19T10:46:13.185Z,29.00
2019-02-19T10:48:44.351Z,29.83
2019-02-19T10:51:15.564Z,27.57
2019-02-19T10:53:46.719Z,29.77
2019-02-19T10:56:17.897Z,27.83
2019-02-19T10:58:49.062Z,28.83
2019-02-19T11:01:20.118Z,27.73
2019-02-19T11:03:52.294Z,28.50
2019-02-19T11:06:23.427Z,25.73
2019-02-19T11:08:54.555Z,22.63
2019-02-19T11:11:25.940Z,21.40
2019-02-19T11:13:57.358Z,18.60
2019-02-19T11:16:28.388Z,21.60
2019-02-19T11:18:59.476Z,23.03
2019-02-19T11:21:30.520Z,20.03
2019-02-19T11:24:01.821Z,19.90
2019-02-19T11:26:32.755Z,15.93
2019-02-19T11:29:03.789Z,13.53
2019-02-19T11:31:34.879Z,18.77
2019-02-19T11:34:06.047Z,17.27
2019-02-19T11:36:37.512Z,15.53
2019-02-19T11:39:10.015Z,14.57
2019-02-19T11:41:41.308Z,18.33
2019-02-19T11:44:12.503Z,20.23
2019-02-19T11:46:43.977Z,19.17
2019-02-19T11:49:15.031Z,19.73
2019-02-19T11:51:46.245Z,15.03
2019-02-19T11:54:17.393Z,15.80
2019-02-19T11:56:48.835Z,16.70
2019-02-19T11:59:20.257Z,17.07
2019-02-19T12:01:51.774Z,15.07
2019-02-19T12:04:23.047Z,16.13
2019-02-19T12:06:54.135Z,17.53
2019-02-19T12:09:25.221Z,18.00
2019-02-19T12:11:56.210Z,18.53
2019-02-19T12:14:27.246Z,15.83
2019-02-19T12:16:58.332Z,16.07
2019-02-19T12:19:29.692Z,16.20
2019-02-19T12:22:00.694Z,16.77
2019-02-19T12:24:31.715Z,16.27
2019-02-19T12:27:02.942Z,16.10
2019-02-19T12:29:34.265Z,16.27
2019-02-19T12:32:05.196Z,15.63
2019-02-19T12:34:36.565Z,15.07
2019-02-19T12:37:07.798Z,14.70
2019-02-19T12:39:39.073Z,15.20
2019-02-19T12:42:10.431Z,14.60
2019-02-19T12:44:41.723Z,13.23
2019-02-19T12:47:13.110Z,13.33
2019-02-19T12:49:44.424Z,13.63
2019-02-19T12:52:15.656Z,13.90
2019-02-19T12:54:46.947Z,14.00
2019-02-19T12:57:18.405Z,12.97
2019-02-19T12:59:56.383Z,12.40
2019-02-19T13:02:22.430Z,12.03
2019-02-19T13:04:53.680Z,11.77
2019-02-19T13:07:24.933Z,11.53
2019-02-19T13:09:56.254Z,10.53
2019-02-19T13:12:27.856Z,11.53
2019-02-19T13:14:58.868Z,10.80
2019-02-19T13:17:29.899Z,11.43
2019-02-19T13:20:00.850Z,11.17
2019-02-19T13:22:33.015Z,11.23
2019-02-19T13:25:04.237Z,10.50
2019-02-19T13:27:35.401Z,10.97
2019-02-19T13:30:08.054Z,10.87
2019-02-19T13:32:39.299Z,10.50
2019-02-19T13:35:11.143Z,10.20
2019-02-19T13:37:43.261Z,10.73
2019-02-19T13:40:14.798Z,9.80
2019-02-19T13:42:46.074Z,10.03
2019-02-19T13:45:17.569Z,10.53
2019-02-19T13:47:49.095Z,10.00
2019-02-19T13:50:21.012Z,11.00
2019-02-19T13:53:09.829Z,9.87
2019-02-19T13:55:44.045Z,11.30
2019-02-19T13:58:15.589Z,9.93
2019-02-19T14:00:47.600Z,10.60
2019-02-19T14:03:19.166Z,10.83
2019-02-19T14:05:50.310Z,10.03
2019-02-19T14:08:21.567Z,10.43
2019-02-19T14:10:52.900Z,10.93
2019-02-19T14:13:24.292Z,9.90
2019-02-19T14:16:15.353Z,10.30
2019-02-19T14:19:05.278Z,11.27
2019-02-19T14:21:56.621Z,10.40
2019-02-19T14:24:55.631Z,9.90
2019-02-19T14:27:44.482Z,10.63
2019-02-19T14:30:37.320Z,10.40
2019-02-19T14:33:48.842Z,10.20
2019-02-19T14:36:52.938Z,10.67
2019-02-19T14:39:48.960Z,9.37
2019-02-19T14:42:44.875Z,8.77
2019-02-19T14:45:30.878Z,8.20
2019-02-19T14:48:19.418Z,8.70
2019-02-19T14:51:15.955Z,9.83
2019-02-19T14:54:12.226Z,9.30
2019-02-19T14:57:08.114Z,8.70
2019-02-19T15:00:00.977Z,8.73
2019-02-19T15:03:00.165Z,8.07
2019-02-19T15:05:48.823Z,8.60
2019-02-19T15:08:42.082Z,8.47
2019-02-19T15:11:34.734Z,8.63
2019-02-19T15:14:27.897Z,7.60
2019-02-19T15:17:20.671Z,8.13
2019-02-19T15:20:19.448Z,7.70
2019-02-19T15:23:18.741Z,8.53
2019-02-19T15:26:13.019Z,8.50
2019-02-19T15:29:02.604Z,8.50
2019-02-19T15:31:45.573Z,7.97
2019-02-19T15:34:44.628Z,8.50
2019-02-19T15:37:33.277Z,8.40
2019-02-19T15:40:26.073Z,8.80
2019-02-19T15:43:25.438Z,8.10
2019-02-19T15:46:21.449Z,8.57
2019-02-19T15:49:14.516Z,8.93
2019-02-19T15:52:07.049Z,8.70
2019-02-19T15:54:47.808Z,9.03
2019-02-19T15:57:31.708Z,8.83
2019-02-19T16:00:20.545Z,9.57
2019-02-19T16:03:00.858Z,9.00
2019-02-19T16:05:51.151Z,10.00
2019-02-19T16:08:41.366Z,10.33
2019-02-19T16:11:34.520Z,15.37
2019-02-19T16:14:24.892Z,25.50
2019-02-19T16:17:08.366Z,26.83
2019-02-19T16:19:58.659Z,22.50
2019-02-19T16:22:51.659Z,22.23
2019-02-19T16:25:40.264Z,20.30
2019-02-19T16:28:45.293Z,23.53
2019-02-19T16:31:53.580Z,21.33
2019-02-19T16:34:47.479Z,17.67
2019-02-19T16:37:43.402Z,17.97
2019-02-19T16:40:21.022Z,34.20
2019-02-19T16:43:11.091Z,40.97
2019-02-19T16:45:59.824Z,35.13
2019-02-19T16:48:39.822Z,34.10
2019-02-19T16:51:21.191Z,31.50
2019-02-19T16:54:23.654Z,34.57
2019-02-19T16:57:07.299Z,46.27
2019-02-19T16:59:49.438Z,47.63
2019-02-19T17:02:30.238Z,49.40
2019-02-19T17:05:19.940Z,49.23
2019-02-19T17:07:57.920Z,51.87
2019-02-19T17:10:44.848Z,56.20
2019-02-19T17:13:37.809Z,44.97
2019-02-19T17:16:27.579Z,47.83
2019-02-19T17:19:20.794Z,53.23
2019-02-19T17:22:06.949Z,55.83
2019-02-19T17:25:02.765Z,55.87
2019-02-19T17:27:47.219Z,49.20
2019-02-19T17:30:37.330Z,48.77
2019-02-19T17:33:33.570Z,41.63
2019-02-19T17:36:22.758Z,45.07
2019-02-19T17:39:12.927Z,42.80
2019-02-19T17:41:49.481Z,40.17
2019-02-19T17:44:33.518Z,41.20
2019-02-19T17:47:26.672Z,41.80
2019-02-19T17:50:16.862Z,34.37
2019-02-19T17:53:05.541Z,33.13
2019-02-19T17:56:01.594Z,36.40
2019-02-19T17:58:47.003Z,34.57
2019-02-19T18:01:42.946Z,34.07
2019-02-19T18:04:21.923Z,34.40
2019-02-19T18:07:10.346Z,29.57
2019-02-19T18:10:10.678Z,27.05
2019-02-19T18:12:59.538Z,27.67
2019-02-19T18:16:01.887Z,27.48
2019-02-19T18:18:50.052Z,26.47
2019-02-19T18:21:21.340Z,27.20
2019-02-19T18:23:52.809Z,29.07
2019-02-19T18:26:24.039Z,27.37
2019-02-19T18:28:55.254Z,27.47
2019-02-19T18:31:26.246Z,26.43
2019-02-19T18:33:57.972Z,25.05
2019-02-19T18:36:29.588Z,25.20
2019-02-19T18:39:00.904Z,25.00
2019-02-19T18:41:33.949Z,23.93
2019-02-19T18:44:05.699Z,23.67
2019-02-19T18:46:37.301Z,22.45
2019-02-19T18:49:08.999Z,21.90
2019-02-19T18:51:40.250Z,20.92
2019-02-19T18:54:12.818Z,22.10
2019-02-19T18:56:44.512Z,21.45
2019-02-19T18:59:16.066Z,22.30
2019-02-19T19:01:47.532Z,20.57
2019-02-19T19:04:18.908Z,21.37
2019-02-19T19:06:50.351Z,20.10
2019-02-19T19:09:21.567Z,21.25
2019-02-19T19:11:53.190Z,21.23
2019-02-19T19:14:24.608Z,21.70
2019-02-19T19:16:55.966Z,21.27
2019-02-19T19:19:27.179Z,23.47
2019-02-19T19:21:58.539Z,22.10
2019-02-19T19:24:29.911Z,19.62
2019-02-19T19:27:01.208Z,21.37
2019-02-19T19:29:32.422Z,19.82
2019-02-19T19:32:03.783Z,18.92
2019-02-19T19:34:35.142Z,19.67
2019-02-19T19:37:06.803Z,22.40
2019-02-19T19:39:38.288Z,18.75
2019-02-19T19:42:09.724Z,20.10
2019-02-19T19:44:41.077Z,19.35
2019-02-19T19:47:12.433Z,19.67
2019-02-19T19:49:43.885Z,18.35
2019-02-19T19:52:15.292Z,20.40
2019-02-19T19:54:46.679Z,21.00
2019-02-19T19:57:18.211Z,20.92
2019-02-19T19:59:49.532Z,21.40
2019-02-19T20:02:20.809Z,25.60
2019-02-19T20:04:52.377Z,23.45
2019-02-19T20:07:23.871Z,27.55
2019-02-19T20:09:55.612Z,24.65
2019-02-19T20:12:27.304Z,26.82
2019-02-19T20:14:58.818Z,36.48
2019-02-19T20:17:30.421Z,32.83
2019-02-19T20:20:01.868Z,35.25
2019-02-19T20:22:34.228Z,30.12
2019-02-19T20:25:06.161Z,35.45
2019-02-19T20:27:37.918Z,34.75
2019-02-19T20:30:10.331Z,31.40
2019-02-19T20:32:42.513Z,31.97
2019-02-19T20:35:14.088Z,44.80
2019-02-19T20:37:53.653Z,36.10
2019-02-19T20:40:19.266Z,39.05
2019-02-19T20:42:50.840Z,42.40
2019-02-19T20:45:22.825Z,38.63
2019-02-19T20:47:54.306Z,44.05
2019-02-19T20:50:26.054Z,44.23
2019-02-19T20:52:57.693Z,53.40
2019-02-19T20:55:36.777Z,48.92
2019-02-19T20:58:03.939Z,44.55
2019-02-19T21:00:35.654Z,44.05
2019-02-19T21:03:07.869Z,46.05
2019-02-19T21:05:39.766Z,44.58
2019-02-19T21:08:11.418Z,43.92
2019-02-19T21:10:43.181Z,44.08
2019-02-19T21:13:14.723Z,43.68
2019-02-19T21:15:46.250Z,46.23
2019-02-19T21:18:18.084Z,40.88
2019-02-19T21:20:49.804Z,39.30
2019-02-19T21:23:21.816Z,43.23
2019-02-19T21:25:53.691Z,41.33
2019-02-19T21:28:25.671Z,41.23
2019-02-19T21:30:57.346Z,39.30
2019-02-19T21:33:28.996Z,43.35
2019-02-19T21:36:00.591Z,48.40
2019-02-19T21:38:32.230Z,39.95
2019-02-19T21:41:03.562Z,37.08
2019-02-19T21:43:35.299Z,38.42
2019-02-19T21:46:07.593Z,39.35
2019-02-19T21:48:39.540Z,41.10
2019-02-19T21:51:11.399Z,38.90
2019-02-19T21:53:43.131Z,38.58
2019-02-19T21:56:15.520Z,39.90
2019-02-19T21:58:47.221Z,35.30
2019-02-19T22:01:18.725Z,37.38
2019-02-19T22:03:50.025Z,34.30
2019-02-19T22:06:22.685Z,33.73
2019-02-19T22:08:54.352Z,34.75
2019-02-19T22:11:25.967Z,34.80
2019-02-19T22:13:57.560Z,34.18
2019-02-19T22:16:29.291Z,33.80
2019-02-19T22:19:01.130Z,33.08
2019-02-19T22:21:41.772Z,36.93
2019-02-19T22:24:13.337Z,34.78
2019-02-19T22:26:44.809Z,33.08
2019-02-19T22:29:16.539Z,34.65
2019-02-19T22:31:48.188Z,33.08
2019-02-19T22:34:19.858Z,32.63
2019-02-19T22:36:51.629Z,30.92
2019-02-19T22:39:23.288Z,31.12
2019-02-19T22:41:54.843Z,31.15
2019-02-19T22:44:26.417Z,30.05
2019-02-19T22:46:57.942Z,32.95
2019-02-19T22:49:29.257Z,33.05
2019-02-19T22:52:00.625Z,31.50
2019-02-19T22:54:42.958Z,32.90
2019-02-19T22:57:14.243Z,31.97
2019-02-19T22:59:45.919Z,31.80
2019-02-19T23:02:29.254Z,31.05
2019-02-19T23:05:01.000Z,31.45
2019-02-19T23:07:33.831Z,31.70
2019-02-19T23:10:06.626Z,33.25
2019-02-19T23:12:38.125Z,33.20
2019-02-19T23:15:09.754Z,33.10
2019-02-19T23:17:41.421Z,32.73
2019-02-19T23:20:13.116Z,34.03
2019-02-19T23:22:44.830Z,32.58
2019-02-19T23:25:16.464Z,33.60
2019-02-19T23:27:48.032Z,32.60
2019-02-19T23:30:19.780Z,34.90
2019-02-19T23:32:51.580Z,35.40
2019-02-19T23:35:32.488Z,37.28
2019-02-19T23:38:04.186Z,36.58
2019-02-19T23:40:36.271Z,38.33
2019-02-19T23:43:07.944Z,42.13
2019-02-19T23:45:39.526Z,39.88
2019-02-19T23:48:11.054Z,41.48
2019-02-19T23:50:42.665Z,40.43
2019-02-19T23:53:14.409Z,36.85
2019-02-19T23:55:46.052Z,37.78
2019-02-19T23:58:17.666Z,35.98
